createdAt,value
2022-12-26T00:00:27.397Z,93.19
2022-12-26T00:01:27.359Z,93.05
2022-12-26T00:02:27.577Z,93.19
2022-12-26T00:03:27.416Z,93.19
2022-12-26T00:04:51.068Z,93.80
2022-12-26T00:05:28.313Z,93.40
2022-12-26T00:06:27.384Z,93.29
2022-12-26T00:07:27.285Z,94.32
2022-12-26T00:08:27.250Z,94.21
2022-12-26T00:09:27.245Z,94.01
2022-12-26T00:10:27.312Z,93.95
2022-12-26T00:11:27.227Z,94.15
2022-12-26T00:12:27.204Z,94.36
2022-12-26T00:13:38.169Z,94.62
2022-12-26T00:14:28.184Z,94.46
2022-12-26T00:15:27.195Z,93.91
2022-12-26T00:16:27.302Z,94.42
2022-12-26T00:17:27.151Z,94.67
2022-12-26T00:18:27.187Z,94.15
2022-12-26T00:19:27.138Z,94.46
2022-12-26T00:20:27.113Z,94.52
2022-12-26T00:21:27.144Z,93.91
2022-12-26T00:22:27.096Z,93.91
2022-12-26T00:23:27.083Z,93.91
2022-12-26T00:24:27.078Z,93.85
2022-12-26T00:25:27.073Z,93.80
2022-12-26T00:26:27.093Z,93.80
2022-12-26T00:27:27.048Z,93.95
2022-12-26T00:28:27.041Z,94.15
2022-12-26T00:29:27.031Z,93.95
2022-12-26T00:30:27.003Z,93.40
2022-12-26T00:31:27.002Z,93.44
2022-12-26T00:32:27.003Z,93.33
2022-12-26T00:33:26.975Z,93.19
2022-12-26T00:34:26.983Z,93.33
2022-12-26T00:35:26.947Z,93.44
2022-12-26T00:36:26.976Z,93.44
2022-12-26T00:37:26.929Z,93.13
2022-12-26T00:38:26.911Z,93.44
2022-12-26T00:39:26.911Z,94.15
2022-12-26T00:40:26.889Z,94.06
2022-12-26T00:41:26.906Z,94.11
2022-12-26T00:42:26.901Z,93.54
2022-12-26T00:43:26.858Z,93.40
2022-12-26T00:44:26.874Z,93.29
2022-12-26T00:45:26.856Z,93.13
2022-12-26T00:46:26.904Z,93.95
2022-12-26T00:47:26.820Z,93.24
2022-12-26T00:48:26.809Z,92.78
2022-12-26T00:49:26.817Z,93.33
2022-12-26T00:50:32.629Z,93.40
2022-12-26T00:51:26.798Z,93.40
2022-12-26T00:52:26.762Z,93.29
2022-12-26T00:53:26.747Z,92.47
2022-12-26T00:54:26.731Z,93.29
2022-12-26T00:55:26.732Z,92.47
2022-12-26T00:56:26.727Z,92.68
2022-12-26T00:57:26.703Z,93.29
2022-12-26T00:58:26.706Z,93.29
2022-12-26T00:59:26.706Z,92.47
2022-12-26T01:00:26.660Z,92.68
2022-12-26T01:01:26.813Z,92.64
2022-12-26T01:02:26.853Z,92.84
2022-12-26T01:03:26.683Z,92.99
2022-12-26T01:04:26.631Z,92.54
2022-12-26T01:05:26.606Z,92.13
2022-12-26T01:06:26.598Z,92.23
2022-12-26T01:07:26.611Z,92.33
2022-12-26T01:08:26.568Z,92.43
2022-12-26T01:09:26.566Z,92.43
2022-12-26T01:10:26.570Z,92.33
2022-12-26T01:11:26.535Z,92.13
2022-12-26T01:12:26.524Z,91.92
2022-12-26T01:13:26.532Z,92.84
2022-12-26T01:14:26.561Z,92.29
2022-12-26T01:15:26.516Z,91.98
2022-12-26T01:16:26.536Z,92.08
2022-12-26T01:17:26.468Z,91.88
2022-12-26T01:18:26.458Z,92.08
2022-12-26T01:19:26.468Z,92.08
2022-12-26T01:20:26.458Z,91.78
2022-12-26T01:21:26.428Z,91.88
2022-12-26T01:22:26.442Z,91.88
2022-12-26T01:23:26.401Z,91.78
2022-12-26T01:24:26.388Z,91.67
2022-12-26T01:25:26.378Z,92.39
2022-12-26T01:26:26.372Z,92.39
2022-12-26T01:27:26.390Z,92.29
2022-12-26T01:28:26.387Z,92.39
2022-12-26T01:29:26.347Z,92.59
2022-12-26T01:30:26.353Z,92.39
2022-12-26T01:31:26.367Z,92.33
2022-12-26T01:32:26.308Z,92.64
2022-12-26T01:33:26.312Z,92.94
2022-12-26T01:34:26.281Z,92.84
2022-12-26T01:35:26.272Z,92.64
2022-12-26T01:36:26.282Z,92.64
2022-12-26T01:37:26.295Z,91.98
2022-12-26T01:38:26.247Z,92.33
2022-12-26T01:39:26.219Z,92.33
2022-12-26T01:40:26.209Z,92.23
2022-12-26T01:41:26.197Z,92.23
2022-12-26T01:42:32.149Z,92.23
2022-12-26T01:43:26.195Z,92.54
2022-12-26T01:44:26.193Z,92.13
2022-12-26T01:45:26.208Z,92.33
2022-12-26T01:46:26.245Z,92.13
2022-12-26T01:47:26.153Z,92.33
2022-12-26T01:48:26.122Z,92.43
2022-12-26T01:49:26.134Z,92.74
2022-12-26T01:50:26.109Z,92.84
2022-12-26T01:51:26.086Z,93.35
2022-12-26T01:52:26.076Z,92.54
2022-12-26T01:53:26.071Z,92.43
2022-12-26T01:54:40.857Z,92.43
2022-12-26T01:55:27.091Z,92.47
2022-12-26T01:56:26.027Z,93.29
2022-12-26T01:57:26.024Z,93.19
2022-12-26T01:58:26.015Z,93.15
2022-12-26T01:59:26.032Z,93.50
2022-12-26T02:00:26.089Z,93.40
2022-12-26T02:01:26.211Z,93.40
2022-12-26T02:02:26.177Z,93.40
2022-12-26T02:03:26.033Z,93.19
2022-12-26T02:04:25.955Z,93.09
2022-12-26T02:05:25.925Z,93.40
2022-12-26T02:06:25.936Z,93.19
2022-12-26T02:07:25.903Z,92.58
2022-12-26T02:08:26.114Z,92.94
2022-12-26T02:09:25.884Z,92.64
2022-12-26T02:10:25.891Z,92.33
2022-12-26T02:11:25.871Z,92.23
2022-12-26T02:12:36.540Z,92.02
2022-12-26T02:13:26.842Z,92.23
2022-12-26T02:14:33.911Z,92.23
2022-12-26T02:15:25.841Z,93.25
2022-12-26T02:16:25.908Z,93.50
2022-12-26T02:17:25.796Z,93.50
2022-12-26T02:18:25.803Z,94.01
2022-12-26T02:19:25.810Z,94.32
2022-12-26T02:20:25.834Z,94.46
2022-12-26T02:21:25.792Z,95.59
2022-12-26T02:22:25.760Z,95.28
2022-12-26T02:23:25.750Z,94.97
2022-12-26T02:24:25.751Z,95.79
2022-12-26T02:25:25.719Z,95.63
2022-12-26T02:26:25.692Z,96.20
2022-12-26T02:27:25.771Z,95.69
2022-12-26T02:28:25.668Z,95.84
2022-12-26T02:29:25.680Z,96.04
2022-12-26T02:30:25.645Z,95.84
2022-12-26T02:31:25.695Z,96.25
2022-12-26T02:32:25.641Z,96.04
2022-12-26T02:33:25.610Z,96.25
2022-12-26T02:34:25.650Z,95.94
2022-12-26T02:35:25.601Z,95.94
2022-12-26T02:36:25.579Z,96.04
2022-12-26T02:37:25.586Z,96.04
2022-12-26T02:38:25.627Z,96.34
2022-12-26T02:39:44.528Z,96.91
2022-12-26T02:40:26.526Z,96.59
2022-12-26T02:41:25.534Z,96.59
2022-12-26T02:42:25.522Z,96.70
2022-12-26T02:43:25.550Z,96.34
2022-12-26T02:44:25.524Z,96.39
2022-12-26T02:45:25.480Z,96.08
2022-12-26T02:46:25.568Z,96.08
2022-12-26T02:47:25.455Z,96.19
2022-12-26T02:48:25.463Z,96.39
2022-12-26T02:49:25.437Z,96.34
2022-12-26T02:50:25.433Z,96.25
2022-12-26T02:51:25.667Z,96.55
2022-12-26T02:52:25.424Z,96.55
2022-12-26T02:53:25.419Z,96.86
2022-12-26T02:54:25.508Z,96.66
2022-12-26T02:55:25.387Z,96.55
2022-12-26T02:56:25.354Z,96.80
2022-12-26T02:57:25.394Z,96.75
2022-12-26T02:58:25.355Z,96.70
2022-12-26T02:59:55.468Z,96.80
2022-12-26T03:00:26.312Z,96.70
2022-12-26T03:01:25.423Z,96.49
2022-12-26T03:02:25.540Z,96.70
2022-12-26T03:03:25.351Z,96.49
2022-12-26T03:04:25.270Z,96.49
2022-12-26T03:05:25.255Z,96.70
2022-12-26T03:06:25.248Z,96.45
2022-12-26T03:07:25.234Z,95.84
2022-12-26T03:08:25.223Z,95.73
2022-12-26T03:09:25.229Z,95.94
2022-12-26T03:10:25.233Z,95.84
2022-12-26T03:11:25.193Z,95.53
2022-12-26T03:12:25.185Z,95.67
2022-12-26T03:13:25.162Z,95.78
2022-12-26T03:14:25.281Z,95.67
2022-12-26T03:15:25.275Z,95.88
2022-12-26T03:16:25.176Z,96.08
2022-12-26T03:17:25.118Z,95.88
2022-12-26T03:18:59.200Z,95.88
2022-12-26T03:19:26.181Z,96.03
2022-12-26T03:20:25.140Z,96.23
2022-12-26T03:21:25.078Z,96.03
2022-12-26T03:22:25.073Z,96.33
2022-12-26T03:23:25.046Z,96.44
2022-12-26T03:24:25.051Z,96.54
2022-12-26T03:25:25.031Z,96.44
2022-12-26T03:26:25.045Z,96.74
2022-12-26T03:27:25.002Z,96.44
2022-12-26T03:28:24.989Z,96.64
2022-12-26T03:29:24.982Z,97.25
2022-12-26T03:30:25.046Z,97.25
2022-12-26T03:31:24.999Z,97.15
2022-12-26T03:32:24.947Z,97.25
2022-12-26T03:33:25.022Z,96.74
2022-12-26T03:34:24.920Z,96.91
2022-12-26T03:35:24.912Z,96.95
2022-12-26T03:36:24.904Z,96.91
2022-12-26T03:37:24.906Z,96.84
2022-12-26T03:38:25.921Z,96.95
2022-12-26T03:39:24.883Z,96.91
2022-12-26T03:40:24.862Z,96.91
2022-12-26T03:41:24.857Z,96.91
2022-12-26T03:42:25.846Z,96.95
2022-12-26T03:43:24.818Z,96.95
2022-12-26T03:44:24.825Z,96.74
2022-12-26T03:45:24.789Z,96.74
2022-12-26T03:46:24.848Z,97.00
2022-12-26T03:47:24.802Z,96.70
2022-12-26T03:48:24.806Z,96.84
2022-12-26T03:49:24.803Z,96.74
2022-12-26T03:50:24.775Z,97.25
2022-12-26T03:51:24.735Z,97.25
2022-12-26T03:52:24.735Z,97.25
2022-12-26T03:53:24.710Z,97.25
2022-12-26T03:54:24.759Z,96.95
2022-12-26T03:55:24.684Z,96.74
2022-12-26T03:56:24.679Z,96.95
2022-12-26T03:57:24.685Z,96.84
2022-12-26T03:58:24.654Z,96.95
2022-12-26T03:59:24.646Z,96.95
2022-12-26T04:00:24.633Z,96.84
2022-12-26T04:01:24.772Z,96.80
2022-12-26T04:02:24.777Z,96.80
2022-12-26T04:03:24.614Z,96.80
2022-12-26T04:04:24.600Z,97.41
2022-12-26T04:05:24.576Z,97.11
2022-12-26T04:06:24.566Z,97.21
2022-12-26T04:07:24.601Z,96.55
2022-12-26T04:08:24.539Z,96.55
2022-12-26T04:09:24.524Z,96.19
2022-12-26T04:10:24.556Z,96.59
2022-12-26T04:11:24.581Z,96.29
2022-12-26T04:12:24.595Z,96.55
2022-12-26T04:13:24.477Z,96.59
2022-12-26T04:14:24.474Z,96.59
2022-12-26T04:15:24.515Z,96.55
2022-12-26T04:16:24.543Z,96.55
2022-12-26T04:17:24.427Z,96.45
2022-12-26T04:18:24.418Z,96.34
2022-12-26T04:19:24.521Z,96.66
2022-12-26T04:20:24.408Z,95.79
2022-12-26T04:21:24.383Z,96.14
2022-12-26T04:22:24.402Z,95.59
2022-12-26T04:23:24.393Z,95.59
2022-12-26T04:24:24.373Z,95.73
2022-12-26T04:25:48.710Z,95.28
2022-12-26T04:26:25.353Z,95.84
2022-12-26T04:27:24.339Z,95.53
2022-12-26T04:28:24.303Z,94.67
2022-12-26T04:29:24.300Z,94.71
2022-12-26T04:30:24.294Z,94.81
2022-12-26T04:31:24.401Z,94.71
2022-12-26T04:32:24.265Z,94.81
2022-12-26T04:33:24.319Z,94.30
2022-12-26T04:34:24.419Z,94.36
2022-12-26T04:35:24.289Z,94.06
2022-12-26T04:36:24.237Z,93.99
2022-12-26T04:37:24.212Z,94.30
2022-12-26T04:38:24.214Z,94.51
2022-12-26T04:39:24.197Z,93.99
2022-12-26T04:40:24.179Z,94.10
2022-12-26T04:41:24.175Z,94.40
2022-12-26T04:42:24.291Z,94.26
2022-12-26T04:43:46.639Z,94.46
2022-12-26T04:44:25.157Z,94.46
2022-12-26T04:45:24.160Z,94.67
2022-12-26T04:46:24.196Z,94.36
2022-12-26T04:47:24.089Z,94.15
2022-12-26T04:48:24.085Z,93.99
2022-12-26T04:49:24.088Z,93.89
2022-12-26T04:50:24.071Z,94.51
2022-12-26T04:51:24.064Z,94.30
2022-12-26T04:52:24.029Z,94.96
2022-12-26T04:53:24.029Z,95.32
2022-12-26T04:54:24.028Z,95.57
2022-12-26T04:55:24.023Z,95.47
2022-12-26T04:56:24.027Z,95.78
2022-12-26T04:57:24.042Z,95.67
2022-12-26T04:58:23.978Z,95.78
2022-12-26T04:59:23.964Z,95.88
2022-12-26T05:00:23.967Z,95.47
2022-12-26T05:01:24.037Z,96.08
2022-12-26T05:02:24.010Z,96.03
2022-12-26T05:03:23.979Z,95.72
2022-12-26T05:04:23.892Z,96.13
2022-12-26T05:05:23.889Z,95.98
2022-12-26T05:06:23.890Z,96.08
2022-12-26T05:07:23.869Z,96.08
2022-12-26T05:08:23.850Z,96.29
2022-12-26T05:09:23.835Z,96.08
2022-12-26T05:10:23.852Z,96.23
2022-12-26T05:11:23.834Z,95.88
2022-12-26T05:12:23.837Z,96.19
2022-12-26T05:13:23.798Z,96.39
2022-12-26T05:14:23.796Z,96.39
2022-12-26T05:15:23.777Z,96.08
2022-12-26T05:16:23.782Z,96.04
2022-12-26T05:17:23.753Z,95.73
2022-12-26T05:18:23.759Z,96.34
2022-12-26T05:19:23.723Z,95.84
2022-12-26T05:20:23.841Z,95.94
2022-12-26T05:21:23.717Z,96.14
2022-12-26T05:22:23.710Z,96.04
2022-12-26T05:23:23.684Z,96.34
2022-12-26T05:24:23.675Z,95.84
2022-12-26T05:25:23.655Z,96.66
2022-12-26T05:26:23.672Z,96.66
2022-12-26T05:27:23.631Z,96.55
2022-12-26T05:28:23.648Z,96.45
2022-12-26T05:29:23.622Z,96.91
2022-12-26T05:30:23.632Z,97.00
2022-12-26T05:31:23.739Z,96.80
2022-12-26T05:32:23.569Z,97.00
2022-12-26T05:33:23.562Z,97.31
2022-12-26T05:34:23.554Z,97.62
2022-12-26T05:35:23.561Z,97.92
2022-12-26T05:36:23.578Z,97.92
2022-12-26T05:37:23.526Z,97.72
2022-12-26T05:38:23.507Z,97.82
2022-12-26T05:39:23.503Z,97.92
2022-12-26T05:40:23.487Z,98.44
2022-12-26T05:41:23.534Z,98.44
2022-12-26T05:42:23.463Z,97.92
2022-12-26T05:43:23.454Z,98.33
2022-12-26T05:44:23.440Z,98.44
2022-12-26T05:45:23.442Z,98.24
2022-12-26T05:46:23.562Z,98.33
2022-12-26T05:47:23.404Z,98.74
2022-12-26T05:48:23.417Z,98.33
2022-12-26T05:49:23.403Z,98.44
2022-12-26T05:50:23.385Z,98.54
2022-12-26T05:51:23.366Z,98.49
2022-12-26T05:52:23.354Z,98.44
2022-12-26T05:53:23.363Z,98.38
2022-12-26T05:54:23.340Z,98.65
2022-12-26T05:55:23.343Z,98.65
2022-12-26T05:56:23.355Z,98.90
2022-12-26T05:57:23.290Z,98.95
2022-12-26T05:58:23.300Z,98.74
2022-12-26T05:59:23.274Z,99.20
2022-12-26T06:00:23.277Z,99.41
2022-12-26T06:01:23.288Z,99.82
2022-12-26T06:02:23.515Z,99.41
2022-12-26T06:03:23.275Z,98.99
2022-12-26T06:04:23.233Z,99.30
2022-12-26T06:05:23.230Z,99.51
2022-12-26T06:06:23.191Z,99.41
2022-12-26T06:07:23.186Z,99.41
2022-12-26T06:08:23.173Z,99.61
2022-12-26T06:09:23.161Z,99.82
2022-12-26T06:10:23.169Z,99.82
2022-12-26T06:11:23.142Z,99.82
2022-12-26T06:12:23.122Z,99.87
2022-12-26T06:13:23.112Z,99.56
2022-12-26T06:14:23.141Z,99.56
2022-12-26T06:15:23.117Z,99.91
2022-12-26T06:16:23.210Z,99.71
2022-12-26T06:17:23.068Z,99.91
2022-12-26T06:18:23.104Z,99.71
2022-12-26T06:19:23.050Z,99.91
2022-12-26T06:20:23.060Z,99.91
2022-12-26T06:21:23.017Z,99.82
2022-12-26T06:22:23.033Z,99.71
2022-12-26T06:23:23.008Z,99.71
2022-12-26T06:24:22.991Z,99.71
2022-12-26T06:25:22.970Z,99.71
2022-12-26T06:26:22.996Z,99.99
2022-12-26T06:27:22.950Z,99.99
2022-12-26T06:28:22.965Z,99.99
2022-12-26T06:29:22.932Z,99.99
2022-12-26T06:30:22.916Z,99.99
2022-12-26T06:31:23.094Z,99.99
2022-12-26T06:32:22.919Z,99.99
2022-12-26T06:33:22.914Z,99.99
2022-12-26T06:34:22.889Z,99.99
2022-12-26T06:35:22.867Z,99.99
2022-12-26T06:36:22.890Z,99.99
2022-12-26T06:37:22.847Z,99.99
2022-12-26T06:38:22.840Z,99.82
2022-12-26T06:39:22.845Z,99.61
2022-12-26T06:40:22.813Z,99.99
2022-12-26T06:41:22.828Z,99.71
2022-12-26T06:42:22.788Z,99.91
2022-12-26T06:43:22.788Z,99.71
2022-12-26T06:44:22.762Z,99.82
2022-12-26T06:45:22.757Z,99.10
2022-12-26T06:46:22.833Z,99.30
2022-12-26T06:47:22.771Z,99.36
2022-12-26T06:48:22.737Z,98.90
2022-12-26T06:49:27.396Z,98.58
2022-12-26T06:50:23.710Z,98.49
2022-12-26T06:51:22.682Z,98.69
2022-12-26T06:52:22.692Z,97.97
2022-12-26T06:53:22.693Z,98.38
2022-12-26T06:54:22.677Z,97.97
2022-12-26T06:55:22.632Z,98.07
2022-12-26T06:56:22.633Z,98.28
2022-12-26T06:57:22.693Z,98.28
2022-12-26T06:58:22.631Z,98.38
2022-12-26T06:59:22.609Z,98.49
2022-12-26T07:00:22.702Z,98.38
2022-12-26T07:01:22.724Z,98.18
2022-12-26T07:02:22.633Z,98.02
2022-12-26T07:03:22.577Z,98.18
2022-12-26T07:04:22.533Z,98.53
2022-12-26T07:05:22.528Z,98.49
2022-12-26T07:06:22.548Z,98.49
2022-12-26T07:07:22.545Z,98.49
2022-12-26T07:08:22.643Z,98.49
2022-12-26T07:09:24.135Z,98.43
2022-12-26T07:10:22.464Z,98.12
2022-12-26T07:11:22.486Z,98.22
2022-12-26T07:12:22.461Z,98.63
2022-12-26T07:13:22.429Z,98.63
2022-12-26T07:14:22.417Z,98.83
2022-12-26T07:15:22.406Z,98.83
2022-12-26T07:16:22.435Z,98.74
2022-12-26T07:17:22.415Z,98.74
2022-12-26T07:18:22.373Z,98.43
2022-12-26T07:19:22.366Z,98.74
2022-12-26T07:20:22.380Z,98.53
2022-12-26T07:21:22.340Z,98.94
2022-12-26T07:22:22.368Z,98.94
2022-12-26T07:23:22.317Z,99.04
2022-12-26T07:24:22.317Z,98.94
2022-12-26T07:25:22.291Z,99.55
2022-12-26T07:26:22.294Z,99.55
2022-12-26T07:27:22.302Z,98.74
2022-12-26T07:28:22.290Z,98.74
2022-12-26T07:29:22.245Z,99.55
2022-12-26T07:30:22.235Z,99.04
2022-12-26T07:31:22.375Z,98.94
2022-12-26T07:32:22.253Z,99.04
2022-12-26T07:33:22.218Z,98.99
2022-12-26T07:34:26.400Z,98.78
2022-12-26T07:35:23.196Z,99.60
2022-12-26T07:36:22.187Z,98.63
2022-12-26T07:37:22.160Z,99.45
2022-12-26T07:38:22.196Z,98.88
2022-12-26T07:39:22.147Z,99.60
2022-12-26T07:40:22.125Z,99.80
2022-12-26T07:41:22.120Z,99.35
2022-12-26T07:42:22.099Z,99.45
2022-12-26T07:43:22.112Z,99.60
2022-12-26T07:44:22.077Z,99.04
2022-12-26T07:45:22.089Z,99.19
2022-12-26T07:46:22.183Z,99.19
2022-12-26T07:47:22.047Z,99.91
2022-12-26T07:48:22.073Z,99.60
2022-12-26T07:49:22.027Z,99.86
2022-12-26T07:50:22.013Z,99.86
2022-12-26T07:51:22.028Z,99.99
2022-12-26T07:52:21.987Z,99.76
2022-12-26T07:53:21.980Z,99.76
2022-12-26T07:54:22.011Z,99.99
2022-12-26T07:55:21.971Z,99.99
2022-12-26T07:56:21.978Z,99.91
2022-12-26T07:57:47.437Z,99.66
2022-12-26T07:58:22.918Z,99.86
2022-12-26T07:59:21.946Z,99.99
2022-12-26T08:00:21.900Z,99.99
2022-12-26T08:01:22.046Z,99.99
2022-12-26T08:02:22.197Z,99.70
2022-12-26T08:03:22.216Z,99.96
2022-12-26T08:04:21.856Z,99.96
2022-12-26T08:05:21.843Z,99.91
2022-12-26T08:06:21.884Z,99.99
2022-12-26T08:07:21.907Z,99.99
2022-12-26T08:08:21.815Z,99.99
2022-12-26T08:09:21.821Z,99.99
2022-12-26T08:10:21.800Z,99.99
2022-12-26T08:11:21.789Z,99.99
2022-12-26T08:12:21.778Z,99.99
2022-12-26T08:13:21.770Z,99.99
2022-12-26T08:14:21.744Z,99.99
2022-12-26T08:15:31.394Z,99.99
2022-12-26T08:16:21.925Z,99.99
2022-12-26T08:17:21.786Z,99.99
2022-12-26T08:18:21.696Z,99.99
2022-12-26T08:19:21.714Z,99.99
2022-12-26T08:20:21.708Z,99.99
2022-12-26T08:21:21.679Z,99.99
2022-12-26T08:22:21.651Z,99.99
2022-12-26T08:23:21.663Z,99.99
2022-12-26T08:24:21.635Z,99.99
2022-12-26T08:25:22.062Z,99.99
2022-12-26T08:26:21.621Z,99.99
2022-12-26T08:27:21.596Z,99.99
2022-12-26T08:28:21.600Z,99.99
2022-12-26T08:29:21.597Z,99.99
2022-12-26T08:30:21.577Z,99.99
2022-12-26T08:31:21.689Z,99.99
2022-12-26T08:32:21.535Z,99.99
2022-12-26T08:33:21.522Z,99.99
2022-12-26T08:34:21.526Z,99.99
2022-12-26T08:35:21.529Z,99.99
2022-12-26T08:36:21.496Z,99.99
2022-12-26T08:37:21.472Z,99.99
2022-12-26T08:38:21.489Z,99.99
2022-12-26T08:39:21.457Z,99.99
2022-12-26T08:40:41.414Z,99.99
2022-12-26T08:41:22.436Z,99.99
2022-12-26T08:42:21.440Z,99.99
2022-12-26T08:43:34.792Z,99.99
2022-12-26T08:44:27.357Z,99.99
2022-12-26T08:45:22.384Z,99.99
2022-12-26T08:46:21.485Z,99.99
2022-12-26T08:47:21.382Z,99.99
2022-12-26T08:48:21.413Z,99.99
2022-12-26T08:49:21.345Z,99.99
2022-12-26T08:50:21.321Z,99.99
2022-12-26T08:51:21.314Z,99.99
2022-12-26T08:52:21.315Z,99.99
2022-12-26T08:53:21.361Z,99.99
2022-12-26T08:54:21.331Z,99.99
2022-12-26T08:55:21.270Z,99.99
2022-12-26T08:56:21.264Z,99.99
2022-12-26T08:57:21.254Z,99.99
2022-12-26T08:58:21.322Z,99.99
2022-12-26T08:59:21.259Z,99.99
2022-12-26T09:00:21.226Z,99.99
2022-12-26T09:01:21.399Z,99.99
2022-12-26T09:02:21.459Z,99.99
2022-12-26T09:03:21.245Z,99.99
2022-12-26T09:04:21.187Z,99.99
2022-12-26T09:05:21.151Z,99.99
2022-12-26T09:06:21.195Z,99.99
2022-12-26T09:07:21.137Z,99.99
2022-12-26T09:08:21.126Z,99.99
2022-12-26T09:09:21.118Z,99.99
2022-12-26T09:10:21.196Z,99.99
2022-12-26T09:11:21.231Z,99.99
2022-12-26T09:12:21.260Z,99.99
2022-12-26T09:13:21.074Z,99.99
2022-12-26T09:14:21.076Z,99.99
2022-12-26T09:15:21.044Z,99.99
2022-12-26T09:16:21.112Z,99.99
2022-12-26T09:17:21.038Z,99.99
2022-12-26T09:18:21.035Z,99.99
2022-12-26T09:19:21.014Z,99.99
2022-12-26T09:20:20.982Z,99.99
2022-12-26T09:21:20.981Z,99.99
2022-12-26T09:22:20.975Z,99.99
2022-12-26T09:23:20.991Z,99.99
2022-12-26T09:24:20.966Z,99.99
2022-12-26T09:25:20.947Z,99.99
2022-12-26T09:26:21.022Z,99.99
2022-12-26T09:27:20.953Z,99.99
2022-12-26T09:28:20.895Z,99.99
2022-12-26T09:29:20.886Z,99.99
2022-12-26T09:30:20.938Z,99.99
2022-12-26T09:31:20.928Z,99.99
2022-12-26T09:32:20.867Z,99.99
2022-12-26T09:33:20.859Z,99.99
2022-12-26T09:34:20.829Z,99.99
2022-12-26T09:35:20.839Z,99.99
2022-12-26T09:36:20.834Z,99.99
2022-12-26T09:37:20.844Z,99.99
2022-12-26T09:38:20.822Z,99.99
2022-12-26T09:39:20.849Z,99.99
2022-12-26T09:40:20.779Z,99.99
2022-12-26T09:41:20.747Z,99.99
2022-12-26T09:42:20.740Z,99.99
2022-12-26T09:43:20.733Z,99.99
2022-12-26T09:44:20.767Z,99.99
2022-12-26T09:45:20.739Z,99.99
2022-12-26T09:46:20.771Z,99.99
2022-12-26T09:47:20.756Z,99.99
2022-12-26T09:48:20.676Z,99.99
2022-12-26T09:49:20.687Z,99.99
2022-12-26T09:50:20.647Z,99.99
2022-12-26T09:51:20.648Z,99.99
2022-12-26T09:52:20.625Z,99.99
2022-12-26T09:53:20.648Z,99.99
2022-12-26T09:54:20.612Z,99.99
2022-12-26T09:55:20.629Z,99.99
2022-12-26T09:57:01.206Z,99.99
2022-12-26T09:57:21.565Z,99.99
2022-12-26T09:58:20.604Z,99.99
2022-12-26T09:59:20.545Z,99.99
2022-12-26T10:00:20.536Z,99.99
2022-12-26T10:01:20.736Z,99.99
2022-12-26T10:02:20.731Z,99.99
2022-12-26T10:03:20.505Z,99.99
2022-12-26T10:04:26.599Z,99.99
2022-12-26T10:05:21.496Z,99.99
2022-12-26T10:06:20.491Z,99.99
2022-12-26T10:07:20.452Z,99.99
2022-12-26T10:08:20.466Z,99.99
2022-12-26T10:09:20.479Z,99.99
2022-12-26T10:10:20.431Z,99.99
2022-12-26T10:11:20.419Z,99.99
2022-12-26T10:12:20.426Z,99.99
2022-12-26T10:13:20.391Z,99.99
2022-12-26T10:14:22.023Z,99.99
2022-12-26T10:15:20.373Z,99.99
2022-12-26T10:16:20.383Z,99.99
2022-12-26T10:17:20.369Z,99.99
2022-12-26T10:18:20.350Z,99.99
2022-12-26T10:19:20.322Z,99.99
2022-12-26T10:20:20.346Z,99.99
2022-12-26T10:21:20.358Z,99.99
2022-12-26T10:22:20.311Z,99.99
2022-12-26T10:23:20.327Z,99.99
2022-12-26T10:24:20.262Z,99.99
2022-12-26T10:25:20.295Z,99.99
2022-12-26T10:26:20.248Z,99.99
2022-12-26T10:27:20.276Z,99.99
2022-12-26T10:28:20.245Z,99.99
2022-12-26T10:29:20.237Z,99.99
2022-12-26T10:30:20.365Z,99.99
2022-12-26T10:31:20.204Z,99.99
2022-12-26T10:32:25.958Z,99.99
2022-12-26T10:33:21.189Z,99.99
2022-12-26T10:34:20.181Z,99.99
2022-12-26T10:35:20.175Z,99.99
2022-12-26T10:36:20.131Z,99.99
2022-12-26T10:37:20.120Z,99.99
2022-12-26T10:38:25.618Z,99.99
2022-12-26T10:39:21.118Z,99.99
2022-12-26T10:40:20.190Z,99.99
2022-12-26T10:41:20.072Z,99.99
2022-12-26T10:42:20.061Z,99.99
2022-12-26T10:43:20.049Z,99.99
2022-12-26T10:44:25.584Z,99.99
2022-12-26T10:45:21.060Z,99.99
2022-12-26T10:46:20.055Z,99.99
2022-12-26T10:47:20.008Z,99.99
2022-12-26T10:48:19.994Z,99.99
2022-12-26T10:49:20.043Z,99.99
2022-12-26T10:50:25.449Z,99.99
2022-12-26T10:51:20.957Z,99.99
2022-12-26T10:52:19.972Z,99.99
2022-12-26T10:53:19.935Z,99.71
2022-12-26T10:54:19.945Z,99.99
2022-12-26T10:55:28.942Z,99.71
2022-12-26T10:56:20.911Z,99.46
2022-12-26T10:57:19.914Z,99.82
2022-12-26T10:58:19.875Z,99.20
2022-12-26T10:59:19.962Z,99.10
2022-12-26T11:00:19.920Z,99.41
2022-12-26T11:01:20.047Z,99.77
2022-12-26T11:02:20.094Z,98.58
2022-12-26T11:03:20.176Z,98.95
2022-12-26T11:04:44.581Z,98.65
2022-12-26T11:05:48.457Z,98.33
2022-12-26T11:06:20.830Z,98.74
2022-12-26T11:07:19.884Z,98.74
2022-12-26T11:08:19.775Z,98.85
2022-12-26T11:09:19.774Z,98.44
2022-12-26T11:10:19.760Z,98.24
2022-12-26T11:11:19.753Z,98.38
2022-12-26T11:12:19.723Z,98.07
2022-12-26T11:13:19.723Z,98.18
2022-12-26T11:14:19.862Z,97.97
2022-12-26T11:15:19.688Z,98.28
2022-12-26T11:16:19.757Z,98.18
2022-12-26T11:17:19.963Z,98.33
2022-12-26T11:18:19.724Z,98.49
2022-12-26T11:19:19.808Z,97.97
2022-12-26T11:20:19.691Z,97.87
2022-12-26T11:21:19.667Z,98.07
2022-12-26T11:22:19.678Z,97.52
2022-12-26T11:23:19.600Z,97.21
2022-12-26T11:24:19.677Z,96.70
2022-12-26T11:25:19.580Z,96.29
2022-12-26T11:26:19.573Z,96.80
2022-12-26T11:27:19.551Z,96.08
2022-12-26T11:28:19.535Z,96.19
2022-12-26T11:29:19.611Z,95.88
2022-12-26T11:30:19.517Z,95.98
2022-12-26T11:31:19.649Z,95.47
2022-12-26T11:32:19.498Z,95.88
2022-12-26T11:33:19.491Z,95.73
2022-12-26T11:34:19.503Z,95.37
2022-12-26T11:35:19.458Z,95.37
2022-12-26T11:36:19.452Z,95.47
2022-12-26T11:37:19.511Z,95.47
2022-12-26T11:38:19.517Z,95.37
2022-12-26T11:39:19.452Z,95.47
2022-12-26T11:40:19.430Z,95.88
2022-12-26T11:41:19.393Z,95.67
2022-12-26T11:42:19.400Z,95.88
2022-12-26T11:43:19.461Z,95.78
2022-12-26T11:44:19.400Z,95.78
2022-12-26T11:45:19.360Z,95.37
2022-12-26T11:46:19.369Z,95.26
2022-12-26T11:47:19.348Z,95.37
2022-12-26T11:48:19.321Z,95.26
2022-12-26T11:49:19.383Z,95.47
2022-12-26T11:50:19.427Z,95.47
2022-12-26T11:51:19.371Z,95.47
2022-12-26T11:52:19.297Z,95.53
2022-12-26T11:53:19.260Z,94.51
2022-12-26T11:54:19.287Z,94.71
2022-12-26T11:55:19.232Z,94.60
2022-12-26T11:56:19.218Z,94.40
2022-12-26T11:57:19.212Z,94.40
2022-12-26T11:58:19.196Z,94.40
2022-12-26T11:59:19.206Z,94.30
2022-12-26T12:00:19.198Z,94.15
2022-12-26T12:01:19.202Z,94.30
2022-12-26T12:02:19.224Z,93.28
2022-12-26T12:03:19.227Z,93.28
2022-12-26T12:04:19.135Z,93.38
2022-12-26T12:05:19.130Z,93.38
2022-12-26T12:06:19.106Z,92.87
2022-12-26T12:07:19.120Z,92.66
2022-12-26T12:08:19.100Z,92.66
2022-12-26T12:09:19.088Z,92.21
2022-12-26T12:10:19.084Z,92.25
2022-12-26T12:11:19.044Z,92.36
2022-12-26T12:12:19.048Z,92.72
2022-12-26T12:13:19.104Z,93.03
2022-12-26T12:14:19.028Z,92.72
2022-12-26T12:15:19.024Z,92.72
2022-12-26T12:16:19.086Z,92.42
2022-12-26T12:17:18.988Z,92.11
2022-12-26T12:18:18.989Z,92.42
2022-12-26T12:19:18.955Z,92.66
2022-12-26T12:20:18.960Z,92.21
2022-12-26T12:21:18.935Z,92.52
2022-12-26T12:22:18.937Z,92.72
2022-12-26T12:23:18.942Z,92.62
2022-12-26T12:24:18.904Z,92.21
2022-12-26T12:25:18.925Z,92.52
2022-12-26T12:26:18.930Z,92.93
2022-12-26T12:27:18.872Z,92.83
2022-12-26T12:28:18.864Z,92.83
2022-12-26T12:29:18.844Z,92.62
2022-12-26T12:30:18.835Z,92.77
2022-12-26T12:31:18.898Z,92.32
2022-12-26T12:32:18.833Z,92.52
2022-12-26T12:33:18.807Z,92.46
2022-12-26T12:34:18.788Z,92.77
2022-12-26T12:35:18.794Z,92.77
2022-12-26T12:36:18.782Z,92.25
2022-12-26T12:37:18.774Z,92.77
2022-12-26T12:38:18.751Z,93.18
2022-12-26T12:39:18.736Z,92.15
2022-12-26T12:40:18.729Z,92.87
2022-12-26T12:41:18.726Z,92.72
2022-12-26T12:42:18.712Z,92.15
2022-12-26T12:43:18.682Z,92.46
2022-12-26T12:44:18.686Z,92.77
2022-12-26T12:45:18.662Z,92.46
2022-12-26T12:46:18.663Z,92.25
2022-12-26T12:47:18.663Z,92.25
2022-12-26T12:48:18.636Z,92.46
2022-12-26T12:49:18.620Z,92.36
2022-12-26T12:50:18.632Z,92.25
2022-12-26T12:51:18.590Z,92.46
2022-12-26T12:52:18.581Z,92.77